sensor_id;sensor_type;location;lat;lon;timestamp;P1;durP1;ratioP1;P2;durP2;ratioP2
15889;SDS011;8043;49.388;12.128;2022-11-25T00:02:44;6.80;;;3.33;;
15889;SDS011;8043;49.388;12.128;2022-11-25T00:07:46;5.95;;;3.25;;
15889;SDS011;8043;49.388;12.128;2022-11-25T00:12:48;3.30;;;2.23;;
15889;SDS011;8043;49.388;12.128;2022-11-25T00:17:51;5.63;;;3.67;;
15889;SDS011;8043;49.388;12.128;2022-11-25T00:22:53;5.57;;;2.97;;
15889;SDS011;8043;49.388;12.128;2022-11-25T00:27:55;15.87;;;3.83;;
15889;SDS011;8043;49.388;12.128;2022-11-25T00:32:57;17.27;;;6.20;;
15889;SDS011;8043;49.388;12.128;2022-11-25T00:38:14;7.13;;;3.53;;
15889;SDS011;8043;49.388;12.128;2022-11-25T00:43:21;5.07;;;2.70;;
15889;SDS011;8043;49.388;12.128;2022-11-25T00:48:49;2.33;;;1.70;;
15889;SDS011;8043;49.388;12.128;2022-11-25T00:53:53;2.60;;;1.63;;
15889;SDS011;8043;49.388;12.128;2022-11-25T00:58:55;6.22;;;2.15;;
15889;SDS011;8043;49.388;12.128;2022-11-25T01:03:58;2.57;;;2.10;;
15889;SDS011;8043;49.388;12.128;2022-11-25T01:09:00;2.77;;;2.00;;
15889;SDS011;8043;49.388;12.128;2022-11-25T01:14:03;3.73;;;2.00;;
15889;SDS011;8043;49.388;12.128;2022-11-25T01:19:06;2.10;;;1.50;;
15889;SDS011;8043;49.388;12.128;2022-11-25T01:24:09;2.13;;;1.60;;
15889;SDS011;8043;49.388;12.128;2022-11-25T01:29:14;2.20;;;1.70;;
15889;SDS011;8043;49.388;12.128;2022-11-25T01:34:19;5.40;;;3.40;;
15889;SDS011;8043;49.388;12.128;2022-11-25T01:39:23;6.50;;;3.13;;
15889;SDS011;8043;49.388;12.128;2022-11-25T01:44:26;7.90;;;3.10;;
15889;SDS011;8043;49.388;12.128;2022-11-25T01:49:38;4.50;;;2.73;;
15889;SDS011;8043;49.388;12.128;2022-11-25T02:00:05;6.40;;;3.50;;
15889;SDS011;8043;49.388;12.128;2022-11-25T02:05:09;7.77;;;2.00;;
15889;SDS011;8043;49.388;12.128;2022-11-25T02:10:14;5.30;;;2.43;;
15889;SDS011;8043;49.388;12.128;2022-11-25T02:15:19;2.87;;;1.70;;
15889;SDS011;8043;49.388;12.128;2022-11-25T02:20:21;2.27;;;1.60;;
15889;SDS011;8043;49.388;12.128;2022-11-25T02:25:25;4.67;;;2.47;;
15889;SDS011;8043;49.388;12.128;2022-11-25T02:30:35;3.27;;;2.40;;
15889;SDS011;8043;49.388;12.128;2022-11-25T02:35:41;6.53;;;2.10;;
15889;SDS011;8043;49.388;12.128;2022-11-25T02:40:55;4.83;;;1.87;;
15889;SDS011;8043;49.388;12.128;2022-11-25T02:45:57;4.37;;;2.07;;
15889;SDS011;8043;49.388;12.128;2022-11-25T02:51:00;3.50;;;2.17;;
15889;SDS011;8043;49.388;12.128;2022-11-25T02:56:02;2.40;;;2.00;;
15889;SDS011;8043;49.388;12.128;2022-11-25T03:01:05;4.70;;;2.83;;
15889;SDS011;8043;49.388;12.128;2022-11-25T03:06:07;3.30;;;1.93;;
15889;SDS011;8043;49.388;12.128;2022-11-25T03:11:10;3.10;;;2.10;;
15889;SDS011;8043;49.388;12.128;2022-11-25T03:16:12;3.40;;;2.07;;
15889;SDS011;8043;49.388;12.128;2022-11-25T03:21:15;3.13;;;2.37;;
15889;SDS011;8043;49.388;12.128;2022-11-25T03:26:17;3.53;;;2.33;;
15889;SDS011;8043;49.388;12.128;2022-11-25T03:31:19;6.60;;;3.40;;
15889;SDS011;8043;49.388;12.128;2022-11-25T03:36:21;8.33;;;3.53;;
15889;SDS011;8043;49.388;12.128;2022-11-25T03:41:23;6.40;;;2.37;;
15889;SDS011;8043;49.388;12.128;2022-11-25T03:46:26;11.57;;;5.80;;
15889;SDS011;8043;49.388;12.128;2022-11-25T03:51:28;8.27;;;3.43;;
15889;SDS011;8043;49.388;12.128;2022-11-25T03:56:30;8.77;;;4.43;;
15889;SDS011;8043;49.388;12.128;2022-11-25T04:01:32;6.17;;;2.80;;
15889;SDS011;8043;49.388;12.128;2022-11-25T04:06:35;6.23;;;3.20;;
15889;SDS011;8043;49.388;12.128;2022-11-25T04:11:38;5.53;;;3.30;;
15889;SDS011;8043;49.388;12.128;2022-11-25T04:16:59;7.73;;;3.03;;
15889;SDS011;8043;49.388;12.128;2022-11-25T04:22:01;6.27;;;2.27;;
15889;SDS011;8043;49.388;12.128;2022-11-25T04:27:03;8.53;;;3.97;;
15889;SDS011;8043;49.388;12.128;2022-11-25T04:32:06;6.53;;;3.30;;
15889;SDS011;8043;49.388;12.128;2022-11-25T04:37:08;8.07;;;3.33;;
15889;SDS011;8043;49.388;12.128;2022-11-25T04:42:10;7.53;;;3.73;;
15889;SDS011;8043;49.388;12.128;2022-11-25T04:47:30;7.27;;;2.67;;
15889;SDS011;8043;49.388;12.128;2022-11-25T04:52:32;9.53;;;4.17;;
15889;SDS011;8043;49.388;12.128;2022-11-25T04:57:34;5.97;;;3.33;;
15889;SDS011;8043;49.388;12.128;2022-11-25T05:02:37;10.17;;;4.20;;
15889;SDS011;8043;49.388;12.128;2022-11-25T05:07:39;10.83;;;4.27;;
15889;SDS011;8043;49.388;12.128;2022-11-25T05:12:41;7.77;;;3.20;;
15889;SDS011;8043;49.388;12.128;2022-11-25T05:17:44;8.50;;;4.63;;
15889;SDS011;8043;49.388;12.128;2022-11-25T05:22:46;6.40;;;3.80;;
15889;SDS011;8043;49.388;12.128;2022-11-25T05:27:48;8.67;;;3.37;;
15889;SDS011;8043;49.388;12.128;2022-11-25T05:32:50;5.87;;;3.63;;
15889;SDS011;8043;49.388;12.128;2022-11-25T05:37:52;7.20;;;4.10;;
15889;SDS011;8043;49.388;12.128;2022-11-25T05:42:55;8.63;;;3.50;;
15889;SDS011;8043;49.388;12.128;2022-11-25T05:47:58;9.93;;;3.87;;
15889;SDS011;8043;49.388;12.128;2022-11-25T05:53:01;7.93;;;4.07;;
15889;SDS011;8043;49.388;12.128;2022-11-25T05:58:03;9.83;;;4.53;;
15889;SDS011;8043;49.388;12.128;2022-11-25T06:03:05;12.20;;;4.40;;
15889;SDS011;8043;49.388;12.128;2022-11-25T06:08:07;9.90;;;3.77;;
15889;SDS011;8043;49.388;12.128;2022-11-25T06:13:10;8.47;;;4.30;;
15889;SDS011;8043;49.388;12.128;2022-11-25T06:18:13;8.87;;;4.20;;
15889;SDS011;8043;49.388;12.128;2022-11-25T06:23:16;9.37;;;4.73;;
15889;SDS011;8043;49.388;12.128;2022-11-25T06:28:18;7.03;;;4.07;;
15889;SDS011;8043;49.388;12.128;2022-11-25T06:33:20;11.23;;;4.77;;
15889;SDS011;8043;49.388;12.128;2022-11-25T06:38:23;11.23;;;4.27;;
15889;SDS011;8043;49.388;12.128;2022-11-25T06:43:25;10.87;;;5.40;;
15889;SDS011;8043;49.388;12.128;2022-11-25T06:48:27;8.40;;;4.17;;
15889;SDS011;8043;49.388;12.128;2022-11-25T06:53:30;13.27;;;5.27;;
15889;SDS011;8043;49.388;12.128;2022-11-25T06:58:33;8.00;;;4.07;;
15889;SDS011;8043;49.388;12.128;2022-11-25T07:03:36;10.73;;;4.70;;
15889;SDS011;8043;49.388;12.128;2022-11-25T07:08:38;9.77;;;3.97;;
15889;SDS011;8043;49.388;12.128;2022-11-25T07:13:40;8.07;;;4.10;;
15889;SDS011;8043;49.388;12.128;2022-11-25T07:18:43;10.23;;;4.23;;
15889;SDS011;8043;49.388;12.128;2022-11-25T07:23:45;8.23;;;4.60;;
15889;SDS011;8043;49.388;12.128;2022-11-25T07:28:49;12.97;;;4.67;;
15889;SDS011;8043;49.388;12.128;2022-11-25T07:33:54;15.50;;;5.95;;
15889;SDS011;8043;49.388;12.128;2022-11-25T07:39:09;7.57;;;4.27;;
15889;SDS011;8043;49.388;12.128;2022-11-25T07:44:13;9.13;;;4.23;;
15889;SDS011;8043;49.388;12.128;2022-11-25T07:49:18;10.97;;;4.20;;
15889;SDS011;8043;49.388;12.128;2022-11-25T07:54:22;9.67;;;3.63;;
15889;SDS011;8043;49.388;12.128;2022-11-25T07:59:24;10.20;;;4.37;;
15889;SDS011;8043;49.388;12.128;2022-11-25T08:04:26;12.40;;;4.90;;
15889;SDS011;8043;49.388;12.128;2022-11-25T08:09:29;9.83;;;4.77;;
15889;SDS011;8043;49.388;12.128;2022-11-25T08:14:31;10.83;;;4.27;;
15889;SDS011;8043;49.388;12.128;2022-11-25T08:19:34;7.40;;;3.50;;
15889;SDS011;8043;49.388;12.128;2022-11-25T08:24:37;11.27;;;4.23;;
15889;SDS011;8043;49.388;12.128;2022-11-25T08:29:39;12.07;;;4.90;;
15889;SDS011;8043;49.388;12.128;2022-11-25T08:34:44;9.97;;;4.63;;
15889;SDS011;8043;49.388;12.128;2022-11-25T08:39:48;19.07;;;10.73;;
15889;SDS011;8043;49.388;12.128;2022-11-25T08:44:53;17.27;;;7.20;;
15889;SDS011;8043;49.388;12.128;2022-11-25T08:49:56;12.53;;;6.27;;
15889;SDS011;8043;49.388;12.128;2022-11-25T08:54:58;16.30;;;6.07;;
15889;SDS011;8043;49.388;12.128;2022-11-25T09:00:01;17.40;;;5.57;;
15889;SDS011;8043;49.388;12.128;2022-11-25T09:05:04;19.00;;;6.30;;
15889;SDS011;8043;49.388;12.128;2022-11-25T09:10:13;15.03;;;6.13;;
15889;SDS011;8043;49.388;12.128;2022-11-25T09:15:15;11.47;;;5.40;;
15889;SDS011;8043;49.388;12.128;2022-11-25T09:20:17;16.23;;;5.47;;
15889;SDS011;8043;49.388;12.128;2022-11-25T09:25:20;17.07;;;6.00;;
15889;SDS011;8043;49.388;12.128;2022-11-25T09:30:23;14.07;;;6.17;;
15889;SDS011;8043;49.388;12.128;2022-11-25T09:35:26;11.63;;;5.80;;
15889;SDS011;8043;49.388;12.128;2022-11-25T09:45:47;16.33;;;7.23;;
15889;SDS011;8043;49.388;12.128;2022-11-25T10:01:52;14.97;;;5.70;;
15889;SDS011;8043;49.388;12.128;2022-11-25T10:06:55;17.80;;;7.40;;
15889;SDS011;8043;49.388;12.128;2022-11-25T10:12:05;20.00;;;7.57;;
15889;SDS011;8043;49.388;12.128;2022-11-25T10:17:14;13.68;;;6.05;;
15889;SDS011;8043;49.388;12.128;2022-11-25T10:27:42;14.30;;;6.33;;
15889;SDS011;8043;49.388;12.128;2022-11-25T10:38:26;14.37;;;5.57;;
15889;SDS011;8043;49.388;12.128;2022-11-25T10:43:35;13.90;;;7.20;;
15889;SDS011;8043;49.388;12.128;2022-11-25T10:48:40;17.27;;;7.07;;
15889;SDS011;8043;49.388;12.128;2022-11-25T10:59:14;14.00;;;7.43;;
15889;SDS011;8043;49.388;12.128;2022-11-25T11:04:21;15.10;;;6.33;;
15889;SDS011;8043;49.388;12.128;2022-11-25T11:09:33;11.43;;;6.67;;
15889;SDS011;8043;49.388;12.128;2022-11-25T11:14:37;9.00;;;4.83;;
15889;SDS011;8043;49.388;12.128;2022-11-25T11:19:39;8.27;;;4.60;;
15889;SDS011;8043;49.388;12.128;2022-11-25T11:24:41;8.10;;;4.13;;
15889;SDS011;8043;49.388;12.128;2022-11-25T11:29:44;7.83;;;4.27;;
15889;SDS011;8043;49.388;12.128;2022-11-25T11:50:39;6.93;;;3.70;;
15889;SDS011;8043;49.388;12.128;2022-11-25T11:55:57;5.13;;;3.07;;
15889;SDS011;8043;49.388;12.128;2022-11-25T12:02:05;8.27;;;3.67;;
15889;SDS011;8043;49.388;12.128;2022-11-25T12:06:32;6.33;;;3.30;;
15889;SDS011;8043;49.388;12.128;2022-11-25T12:11:37;5.77;;;2.97;;
15889;SDS011;8043;49.388;12.128;2022-11-25T12:16:46;6.43;;;3.13;;
15889;SDS011;8043;49.388;12.128;2022-11-25T12:21:54;10.50;;;4.23;;
15889;SDS011;8043;49.388;12.128;2022-11-25T12:48:35;8.47;;;4.63;;
15889;SDS011;8043;49.388;12.128;2022-11-25T12:53:41;8.87;;;4.97;;
15889;SDS011;8043;49.388;12.128;2022-11-25T12:59:09;9.80;;;6.07;;
15889;SDS011;8043;49.388;12.128;2022-11-25T13:04:41;8.30;;;4.20;;
15889;SDS011;8043;49.388;12.128;2022-11-25T13:25:37;9.97;;;4.43;;
15889;SDS011;8043;49.388;12.128;2022-11-25T13:30:40;9.20;;;4.60;;
15889;SDS011;8043;49.388;12.128;2022-11-25T13:46:01;6.03;;;4.20;;
15889;SDS011;8043;49.388;12.128;2022-11-25T13:51:17;8.00;;;4.73;;
15889;SDS011;8043;49.388;12.128;2022-11-25T13:56:27;6.73;;;4.00;;
15889;SDS011;8043;49.388;12.128;2022-11-25T14:01:35;6.90;;;4.80;;
15889;SDS011;8043;49.388;12.128;2022-11-25T14:06:53;8.90;;;4.90;;
15889;SDS011;8043;49.388;12.128;2022-11-25T14:27:26;11.87;;;4.50;;
15889;SDS011;8043;49.388;12.128;2022-11-25T14:32:36;9.53;;;5.23;;
15889;SDS011;8043;49.388;12.128;2022-11-25T14:37:59;13.57;;;6.03;;
15889;SDS011;8043;49.388;12.128;2022-11-25T14:43:11;10.80;;;6.13;;
15889;SDS011;8043;49.388;12.128;2022-11-25T14:48:20;8.50;;;4.60;;
15889;SDS011;8043;49.388;12.128;2022-11-25T14:53:25;8.13;;;4.57;;
15889;SDS011;8043;49.388;12.128;2022-11-25T14:58:28;6.97;;;4.17;;
15889;SDS011;8043;49.388;12.128;2022-11-25T15:03:31;7.40;;;4.20;;
15889;SDS011;8043;49.388;12.128;2022-11-25T15:08:43;5.70;;;4.05;;
15889;SDS011;8043;49.388;12.128;2022-11-25T15:13:56;8.40;;;3.97;;
15889;SDS011;8043;49.388;12.128;2022-11-25T15:19:03;8.03;;;4.13;;
15889;SDS011;8043;49.388;12.128;2022-11-25T15:24:16;9.73;;;4.93;;
15889;SDS011;8043;49.388;12.128;2022-11-25T15:29:23;8.60;;;4.33;;
15889;SDS011;8043;49.388;12.128;2022-11-25T15:34:27;9.20;;;4.33;;
15889;SDS011;8043;49.388;12.128;2022-11-25T15:39:30;8.07;;;5.00;;
15889;SDS011;8043;49.388;12.128;2022-11-25T15:44:33;20.00;;;9.00;;
15889;SDS011;8043;49.388;12.128;2022-11-25T15:49:38;13.33;;;5.97;;
15889;SDS011;8043;49.388;12.128;2022-11-25T15:54:44;12.60;;;5.57;;
15889;SDS011;8043;49.388;12.128;2022-11-25T16:00:00;13.43;;;5.30;;
15889;SDS011;8043;49.388;12.128;2022-11-25T16:10:21;18.50;;;8.47;;
15889;SDS011;8043;49.388;12.128;2022-11-25T16:15:40;23.53;;;11.63;;
15889;SDS011;8043;49.388;12.128;2022-11-25T16:20:32;42.77;;;17.27;;
15889;SDS011;8043;49.388;12.128;2022-11-25T16:25:34;26.50;;;12.80;;
15889;SDS011;8043;49.388;12.128;2022-11-25T16:30:39;17.63;;;8.80;;
15889;SDS011;8043;49.388;12.128;2022-11-25T16:35:41;11.17;;;6.87;;
15889;SDS011;8043;49.388;12.128;2022-11-25T16:40:45;8.97;;;5.33;;
15889;SDS011;8043;49.388;12.128;2022-11-25T16:45:51;11.57;;;5.93;;
15889;SDS011;8043;49.388;12.128;2022-11-25T16:50:54;16.67;;;7.10;;
15889;SDS011;8043;49.388;12.128;2022-11-25T16:55:57;16.17;;;6.97;;
15889;SDS011;8043;49.388;12.128;2022-11-25T17:01:00;13.30;;;8.20;;
15889;SDS011;8043;49.388;12.128;2022-11-25T17:06:08;15.10;;;7.00;;
15889;SDS011;8043;49.388;12.128;2022-11-25T17:11:18;9.23;;;6.37;;
15889;SDS011;8043;49.388;12.128;2022-11-25T17:16:29;13.17;;;7.33;;
15889;SDS011;8043;49.388;12.128;2022-11-25T17:21:31;10.83;;;5.77;;
15889;SDS011;8043;49.388;12.128;2022-11-25T17:26:37;7.13;;;4.97;;
15889;SDS011;8043;49.388;12.128;2022-11-25T17:31:41;11.30;;;5.47;;
15889;SDS011;8043;49.388;12.128;2022-11-25T17:36:46;11.33;;;7.17;;
15889;SDS011;8043;49.388;12.128;2022-11-25T17:41:48;12.80;;;6.87;;
15889;SDS011;8043;49.388;12.128;2022-11-25T17:46:55;11.63;;;6.63;;
15889;SDS011;8043;49.388;12.128;2022-11-25T17:51:59;12.50;;;7.27;;
15889;SDS011;8043;49.388;12.128;2022-11-25T17:57:06;11.97;;;6.33;;
15889;SDS011;8043;49.388;12.128;2022-11-25T18:02:28;15.03;;;7.23;;
15889;SDS011;8043;49.388;12.128;2022-11-25T18:07:34;11.17;;;6.00;;
15889;SDS011;8043;49.388;12.128;2022-11-25T18:12:39;12.80;;;7.00;;
15889;SDS011;8043;49.388;12.128;2022-11-25T18:17:48;10.97;;;6.17;;
15889;SDS011;8043;49.388;12.128;2022-11-25T18:23:15;15.00;;;8.17;;
15889;SDS011;8043;49.388;12.128;2022-11-25T18:28:24;14.00;;;7.90;;
15889;SDS011;8043;49.388;12.128;2022-11-25T18:33:27;15.70;;;8.37;;
15889;SDS011;8043;49.388;12.128;2022-11-25T18:38:29;13.90;;;7.70;;
15889;SDS011;8043;49.388;12.128;2022-11-25T18:43:31;13.95;;;7.05;;
15889;SDS011;8043;49.388;12.128;2022-11-25T18:48:36;12.40;;;7.50;;
15889;SDS011;8043;49.388;12.128;2022-11-25T18:53:40;15.73;;;7.43;;
15889;SDS011;8043;49.388;12.128;2022-11-25T18:58:43;14.63;;;6.33;;
15889;SDS011;8043;49.388;12.128;2022-11-25T19:03:47;12.97;;;7.17;;
15889;SDS011;8043;49.388;12.128;2022-11-25T19:08:50;12.43;;;7.10;;
15889;SDS011;8043;49.388;12.128;2022-11-25T19:13:53;32.33;;;14.63;;
15889;SDS011;8043;49.388;12.128;2022-11-25T19:18:59;21.60;;;10.70;;
15889;SDS011;8043;49.388;12.128;2022-11-25T19:24:01;20.97;;;12.03;;
15889;SDS011;8043;49.388;12.128;2022-11-25T19:29:08;16.50;;;9.07;;
15889;SDS011;8043;49.388;12.128;2022-11-25T19:34:19;37.27;;;16.37;;
15889;SDS011;8043;49.388;12.128;2022-11-25T19:39:16;15.13;;;8.17;;
15889;SDS011;8043;49.388;12.128;2022-11-25T19:44:19;13.30;;;7.60;;
15889;SDS011;8043;49.388;12.128;2022-11-25T19:49:21;16.27;;;8.13;;
15889;SDS011;8043;49.388;12.128;2022-11-25T19:54:24;14.17;;;7.40;;
15889;SDS011;8043;49.388;12.128;2022-11-25T19:59:26;13.60;;;6.40;;
15889;SDS011;8043;49.388;12.128;2022-11-25T20:04:29;14.07;;;7.63;;
15889;SDS011;8043;49.388;12.128;2022-11-25T20:09:31;17.33;;;7.50;;
15889;SDS011;8043;49.388;12.128;2022-11-25T20:14:34;13.37;;;6.87;;
15889;SDS011;8043;49.388;12.128;2022-11-25T20:19:36;12.73;;;6.13;;
15889;SDS011;8043;49.388;12.128;2022-11-25T20:24:39;12.40;;;6.83;;
15889;SDS011;8043;49.388;12.128;2022-11-25T20:29:41;11.13;;;5.97;;
15889;SDS011;8043;49.388;12.128;2022-11-25T20:34:43;12.37;;;6.30;;
15889;SDS011;8043;49.388;12.128;2022-11-25T20:39:57;14.60;;;7.00;;
15889;SDS011;8043;49.388;12.128;2022-11-25T20:45:12;12.33;;;6.70;;
15889;SDS011;8043;49.388;12.128;2022-11-25T20:50:17;12.57;;;7.03;;
15889;SDS011;8043;49.388;12.128;2022-11-25T20:55:22;15.37;;;6.40;;
15889;SDS011;8043;49.388;12.128;2022-11-25T21:00:26;18.10;;;7.33;;
15889;SDS011;8043;49.388;12.128;2022-11-25T21:05:32;11.23;;;5.67;;
15889;SDS011;8043;49.388;12.128;2022-11-25T21:10:42;15.30;;;6.57;;
15889;SDS011;8043;49.388;12.128;2022-11-25T21:15:47;10.90;;;6.10;;
15889;SDS011;8043;49.388;12.128;2022-11-25T21:21:00;14.57;;;6.60;;
15889;SDS011;8043;49.388;12.128;2022-11-25T21:26:19;11.83;;;5.70;;
15889;SDS011;8043;49.388;12.128;2022-11-25T21:31:22;10.53;;;6.17;;
15889;SDS011;8043;49.388;12.128;2022-11-25T21:36:28;11.40;;;6.40;;
15889;SDS011;8043;49.388;12.128;2022-11-25T21:41:37;14.13;;;5.83;;
15889;SDS011;8043;49.388;12.128;2022-11-25T21:46:40;12.93;;;5.50;;
15889;SDS011;8043;49.388;12.128;2022-11-25T21:51:42;12.13;;;6.63;;
15889;SDS011;8043;49.388;12.128;2022-11-25T21:56:44;13.40;;;7.62;;
15889;SDS011;8043;49.388;12.128;2022-11-25T22:01:47;18.63;;;8.93;;
15889;SDS011;8043;49.388;12.128;2022-11-25T22:06:50;13.83;;;7.47;;
15889;SDS011;8043;49.388;12.128;2022-11-25T22:11:52;15.30;;;7.63;;
15889;SDS011;8043;49.388;12.128;2022-11-25T22:16:55;15.73;;;7.20;;
15889;SDS011;8043;49.388;12.128;2022-11-25T22:21:57;17.80;;;7.77;;
15889;SDS011;8043;49.388;12.128;2022-11-25T22:27:00;16.37;;;6.93;;
15889;SDS011;8043;49.388;12.128;2022-11-25T22:32:04;10.03;;;5.87;;
15889;SDS011;8043;49.388;12.128;2022-11-25T22:37:18;13.77;;;6.73;;
15889;SDS011;8043;49.388;12.128;2022-11-25T22:42:24;11.70;;;6.03;;
15889;SDS011;8043;49.388;12.128;2022-11-25T22:47:49;12.80;;;5.70;;
15889;SDS011;8043;49.388;12.128;2022-11-25T22:52:41;11.20;;;6.27;;
15889;SDS011;8043;49.388;12.128;2022-11-25T22:57:44;13.07;;;6.10;;
15889;SDS011;8043;49.388;12.128;2022-11-25T23:02:47;13.27;;;6.10;;
15889;SDS011;8043;49.388;12.128;2022-11-25T23:07:50;15.87;;;7.17;;
15889;SDS011;8043;49.388;12.128;2022-11-25T23:12:52;14.67;;;6.90;;
15889;SDS011;8043;49.388;12.128;2022-11-25T23:18:00;12.07;;;6.30;;
15889;SDS011;8043;49.388;12.128;2022-11-25T23:23:04;15.10;;;7.17;;
15889;SDS011;8043;49.388;12.128;2022-11-25T23:28:20;13.20;;;5.03;;
15889;SDS011;8043;49.388;12.128;2022-11-25T23:33:35;16.73;;;7.03;;
15889;SDS011;8043;49.388;12.128;2022-11-25T23:38:45;12.67;;;6.20;;
15889;SDS011;8043;49.388;12.128;2022-11-25T23:43:53;14.43;;;5.70;;
15889;SDS011;8043;49.388;12.128;2022-11-25T23:48:57;12.00;;;5.33;;
15889;SDS011;8043;49.388;12.128;2022-11-25T23:54:00;10.83;;;5.73;;
15889;SDS011;8043;49.388;12.128;2022-11-25T23:59:04;10.47;;;4.97;;
